Time;durP1;ratioP1;P1;durP2;ratioP2;P2;SDS_P1;SDS_P2;PMS_P1;PMS_P2;Temp;Humidity;BMP_temperature;BMP_pressure;BME280_temperature;BME280_humidity;BME280_pressure;Samples;Min_cycle;Max_cycle;Signal;HPM_P1;HPM_P2
2021/09/24 00:02:02;;;;;;;11.38;5.68;;;;;;;16.01;73.66;99798.03;5028885;28;20854;-71
2021/09/24 00:04:28;;;;;;;11.35;5.43;;;;;;;15.96;74.08;99806.34;5029224;28;20052;-71
2021/09/24 00:06:54;;;;;;;9.13;5.30;;;;;;;15.92;74.19;99802.19;5026811;28;20455;-72
2021/09/24 00:09:19;;;;;;;6.78;5.03;;;;;;;15.91;74.62;99802.31;5026793;28;20049;-71
2021/09/24 00:11:45;;;;;;;10.50;4.88;;;;;;;15.88;74.40;99795.41;5024942;28;20038;-71
2021/09/24 00:14:11;;;;;;;6.28;4.78;;;;;;;15.88;74.43;99798.06;5028256;28;20527;-72
2021/09/24 00:16:38;;;;;;;15.02;6.22;;;;;;;15.85;74.66;99804.47;5028103;28;20095;-72
2021/09/24 00:19:04;;;;;;;8.10;5.90;;;;;;;15.82;74.75;99795.84;5025185;28;20045;-72
2021/09/24 00:21:29;;;;;;;8.20;5.22;;;;;;;15.82;74.97;99793.19;5029619;28;20072;-72
2021/09/24 00:23:55;;;;;;;11.05;5.78;;;;;;;15.81;74.87;99792.34;5026960;28;20076;-72
2021/09/24 00:26:20;;;;;;;8.65;5.53;;;;;;;15.80;74.82;99792.44;5028073;28;20050;-72
2021/09/24 00:28:46;;;;;;;10.38;5.63;;;;;;;15.78;74.75;99787.25;5026931;28;20121;-72
2021/09/24 00:31:11;;;;;;;9.13;5.30;;;;;;;15.75;75.15;99787.47;5046626;28;20102;-71
2021/09/24 00:33:37;;;;;;;7.60;5.18;;;;;;;15.73;75.38;99789.38;5048466;28;20061;-71
2021/09/24 00:36:02;;;;;;;6.15;5.15;;;;;;;15.73;75.33;99785.88;5044066;28;20033;-72
2021/09/24 00:38:27;;;;;;;8.23;5.60;;;;;;;15.68;75.54;99781.69;5046899;28;20033;-71
2021/09/24 00:40:54;;;;;;;14.23;6.93;;;;;;;15.62;75.57;99786.59;5048861;28;20033;-72
2021/09/24 00:43:19;;;;;;;11.10;6.63;;;;;;;15.59;75.69;99784.16;5046247;28;20489;-72
2021/09/24 00:45:46;;;;;;;12.63;7.00;;;;;;;15.60;75.66;99788.50;5048919;28;20045;-72
2021/09/24 00:48:11;;;;;;;12.10;6.47;;;;;;;15.59;75.67;99777.03;5047008;28;20446;-71
2021/09/24 00:50:37;;;;;;;12.15;7.00;;;;;;;15.59;75.52;99784.16;5047194;28;20120;-73
2021/09/24 00:53:03;;;;;;;13.25;7.47;;;;;;;15.58;75.48;99782.44;5047802;28;20416;-71
2021/09/24 00:55:28;;;;;;;9.77;6.57;;;;;;;15.57;75.38;99786.06;5048797;28;20041;-72
2021/09/24 00:57:54;;;;;;;11.48;7.60;;;;;;;15.52;75.62;99783.72;5048399;28;20051;-72
2021/09/24 01:00:19;;;;;;;13.60;8.07;;;;;;;15.52;75.63;99780.22;5047306;28;20037;-73
2021/09/24 01:02:46;;;;;;;14.43;8.75;;;;;;;15.51;76.27;99779.38;5015403;28;20098;-70
2021/09/24 01:05:12;;;;;;;12.65;8.68;;;;;;;15.46;76.05;99769.06;5006209;28;1113309;-71
2021/09/24 01:07:43;;;;;;;12.32;8.80;;;;;;;15.44;76.02;99770.97;5040977;28;20400;-72
2021/09/24 01:10:11;;;;;;;15.20;9.93;;;;;;;15.41;76.45;99770.34;5049906;28;20033;-72
2021/09/24 01:12:37;;;;;;;22.63;10.60;;;;;;;15.39;76.73;99782.88;5048400;28;20032;-71
2021/09/24 01:15:10;;;;;;;16.33;9.88;;;;;;;15.38;76.95;99770.53;5050906;28;20037;-71
2021/09/24 01:17:36;;;;;;;13.60;9.50;;;;;;;15.36;76.61;99778.63;5072681;28;20043;-71
2021/09/24 01:20:03;;;;;;;18.20;10.15;;;;;;;15.37;76.70;99771.50;5059409;28;20041;-70
2021/09/24 01:22:30;;;;;;;15.13;10.77;;;;;;;15.33;76.95;99777.97;5061284;28;20123;-70
2021/09/24 01:24:55;;;;;;;17.75;9.30;;;;;;;15.31;77.06;99775.44;5061162;28;20047;-71
2021/09/24 01:27:21;;;;;;;12.93;10.50;;;;;;;15.33;77.15;99778.81;5061894;28;20101;-71
2021/09/24 01:29:50;;;;;;;12.18;10.63;;;;;;;15.30;77.12;99776.38;5042947;28;20416;-71
2021/09/24 01:32:16;;;;;;;14.77;11.35;;;;;;;15.31;77.48;99777.22;5061176;28;20052;-73
2021/09/24 01:34:42;;;;;;;17.73;11.70;;;;;;;15.31;77.58;99769.25;5061918;28;20033;-73
2021/09/24 01:37:07;;;;;;;14.68;12.23;;;;;;;15.32;77.46;99770.97;5053047;28;20055;-72
2021/09/24 01:39:33;;;;;;;18.42;12.23;;;;;;;15.31;77.84;99775.44;5056515;28;20043;-72
2021/09/24 01:41:58;;;;;;;20.52;14.80;;;;;;;15.30;78.08;99770.22;5055828;28;20674;-72
2021/09/24 01:44:23;;;;;;;23.27;12.73;;;;;;;15.30;78.25;99772.88;5051974;28;20041;-71
2021/09/24 01:46:49;;;;;;;22.25;13.52;;;;;;;15.33;77.95;99767.34;5060004;28;20083;-73
2021/09/24 01:49:14;;;;;;;26.02;13.63;;;;;;;15.36;77.74;99772.47;5050698;28;20041;-72
2021/09/24 01:51:43;;;;;;;32.28;14.73;;;;;;;15.39;78.00;99765.13;5048314;28;20032;-70
2021/09/24 01:54:10;;;;;;;19.05;14.85;;;;;;;15.38;78.03;99763.44;5047230;28;20123;-72
2021/09/24 01:56:35;;;;;;;19.55;12.40;;;;;;;15.43;77.77;99771.06;5049617;28;20063;-71
2021/09/24 01:59:01;;;;;;;18.40;13.85;;;;;;;15.45;77.67;99770.00;5048990;28;20119;-72
2021/09/24 02:01:27;;;;;;;17.10;11.68;;;;;;;15.50;77.50;99764.38;5046496;28;20116;-72
2021/09/24 02:03:52;;;;;;;22.00;15.07;;;;;;;15.51;77.47;99768.75;5056620;28;20060;-73
2021/09/24 02:06:17;;;;;;;18.52;14.93;;;;;;;15.52;77.39;99770.44;5052649;28;20041;-72
2021/09/24 02:08:43;;;;;;;19.67;13.68;;;;;;;15.53;77.39;99766.84;5047629;28;20025;-72
2021/09/24 02:11:11;;;;;;;16.48;13.80;;;;;;;15.56;77.38;99761.31;5047019;28;20575;-72
2021/09/24 02:13:40;;;;;;;18.05;13.65;;;;;;;15.58;77.22;99761.16;5047869;28;20033;-72
2021/09/24 02:16:06;;;;;;;19.65;13.93;;;;;;;15.59;77.21;99758.41;5046215;28;20041;-72
2021/09/24 02:18:32;;;;;;;21.48;13.80;;;;;;;15.60;77.17;99759.25;5029904;28;20033;-72
2021/09/24 02:20:57;;;;;;;14.57;12.98;;;;;;;15.59;77.32;99755.75;5046414;28;20043;-71
2021/09/24 02:23:22;;;;;;;19.65;13.82;;;;;;;15.56;77.84;99755.97;5047081;28;20037;-71
2021/09/24 02:25:48;;;;;;;19.98;16.20;;;;;;;15.57;77.48;99755.00;5047594;28;20477;-71
2021/09/24 02:28:13;;;;;;;20.05;13.52;;;;;;;15.57;77.46;99746.19;5046835;28;20499;-71
2021/09/24 02:30:39;;;;;;;17.67;13.07;;;;;;;15.59;77.49;99753.09;5047297;28;20507;-71
2021/09/24 02:33:04;;;;;;;25.05;14.30;;;;;;;15.61;77.63;99751.19;5047489;28;20037;-72
2021/09/24 02:35:29;;;;;;;17.50;13.40;;;;;;;15.64;77.50;99744.81;5046393;28;20106;-71
2021/09/24 02:37:55;;;;;;;16.77;13.48;;;;;;;15.64;77.60;99745.66;5047589;28;20033;-71
2021/09/24 02:40:20;;;;;;;18.73;13.95;;;;;;;15.65;77.55;99742.06;5047909;28;20041;-72
2021/09/24 02:42:46;;;;;;;16.98;13.43;;;;;;;15.66;77.81;99746.41;5046087;28;20033;-71
2021/09/24 02:45:12;;;;;;;19.15;15.18;;;;;;;15.70;77.25;99744.38;5047163;28;20041;-70
2021/09/24 02:47:38;;;;;;;19.63;14.40;;;;;;;15.72;77.33;99744.28;5047235;28;20043;-72
2021/09/24 02:50:06;;;;;;;23.25;13.88;;;;;;;15.74;77.31;99742.38;5047114;28;20040;-72
2021/09/24 02:52:32;;;;;;;23.27;13.57;;;;;;;15.74;77.31;99740.56;5040227;28;20040;-71
2021/09/24 02:54:57;;;;;;;17.00;13.88;;;;;;;15.76;77.15;99730.69;5045176;28;20372;-72
2021/09/24 02:57:22;;;;;;;17.70;14.20;;;;;;;15.78;77.23;99728.75;5045602;28;20041;-71
2021/09/24 02:59:48;;;;;;;19.58;13.52;;;;;;;15.79;77.13;99717.16;5044664;28;20033;-72
2021/09/24 03:02:13;;;;;;;15.30;13.57;;;;;;;15.80;76.91;99728.63;5046411;28;20140;-72
2021/09/24 03:04:38;;;;;;;18.85;13.88;;;;;;;15.78;77.38;99728.75;5046835;28;20029;-73
2021/09/24 03:07:04;;;;;;;21.88;16.13;;;;;;;15.80;77.31;99737.47;5046754;28;20045;-72
2021/09/24 03:09:29;;;;;;;20.75;15.57;;;;;;;15.79;77.42;99732.25;5045230;28;20036;-72
2021/09/24 03:11:54;;;;;;;21.48;15.13;;;;;;;15.77;77.65;99734.19;5045643;28;20033;-72
2021/09/24 03:14:20;;;;;;;23.02;13.70;;;;;;;15.78;77.63;99734.09;5047094;28;20048;-72
2021/09/24 03:16:45;;;;;;;18.95;14.57;;;;;;;15.76;78.03;99732.50;5046713;28;20423;-72
2021/09/24 03:19:13;;;;;;;19.70;14.75;;;;;;;15.75;78.08;99731.66;5046738;28;20048;-72
2021/09/24 03:21:39;;;;;;;22.13;14.07;;;;;;;15.77;78.13;99727.03;5046242;28;20037;-72
2021/09/24 03:24:04;;;;;;;18.38;11.95;;;;;;;15.81;77.66;99731.19;5046332;28;20041;-72
2021/09/24 03:26:31;;;;;;;19.92;14.20;;;;;;;15.85;77.76;99730.03;5046282;28;20037;-72
2021/09/24 03:28:57;;;;;;;21.77;15.73;;;;;;;15.85;77.71;99726.50;5046277;28;20111;-72
2021/09/24 03:31:22;;;;;;;23.27;14.52;;;;;;;15.85;77.56;99732.69;5046049;28;20037;-72
2021/09/24 03:33:48;;;;;;;25.80;16.40;;;;;;;15.80;77.30;99736.59;5046925;28;20033;-72
2021/09/24 03:36:13;;;;;;;26.38;15.95;;;;;;;15.76;77.73;99737.81;5049568;28;20033;-73
2021/09/24 03:38:39;;;;;;;19.90;15.05;;;;;;;15.75;78.01;99733.44;5046232;28;20370;-72
2021/09/24 03:41:05;;;;;;;19.58;15.10;;;;;;;15.72;77.86;99736.31;5044422;28;20052;-72
2021/09/24 03:43:30;;;;;;;25.02;17.35;;;;;;;15.63;78.42;99741.31;5046291;28;20029;-71
2021/09/24 03:45:55;;;;;;;30.58;16.90;;;;;;;15.60;78.52;99738.88;5045748;28;20033;-72
2021/09/24 03:48:21;;;;;;;24.42;16.60;;;;;;;15.62;78.64;99736.09;5046660;28;20064;-72
2021/09/24 03:50:46;;;;;;;26.00;16.48;;;;;;;15.59;78.85;99731.84;5044998;28;20083;-72
2021/09/24 03:53:13;;;;;;;27.65;16.75;;;;;;;15.59;79.09;99729.19;5045828;28;20037;-71
2021/09/24 03:55:38;;;;;;;23.95;17.52;;;;;;;15.59;79.09;99738.97;5044450;28;20508;-71
2021/09/24 03:58:03;;;;;;;25.27;17.77;;;;;;;15.56;79.01;99737.38;5045667;28;20146;-72
2021/09/24 04:00:29;;;;;;;20.40;17.35;;;;;;;15.59;79.06;99738.97;5045899;28;20025;-71
2021/09/24 04:02:55;;;;;;;25.35;18.52;;;;;;;15.59;79.27;99738.97;5048734;28;20143;-70
2021/09/24 04:05:20;;;;;;;25.85;19.88;;;;;;;15.56;78.89;99739.19;5047974;28;20047;-71
2021/09/24 04:07:46;;;;;;;30.80;19.60;;;;;;;15.55;79.32;99740.13;5030991;28;20033;-71
2021/09/24 04:10:11;;;;;;;27.33;20.70;;;;;;;15.51;79.26;99736.00;5049629;28;20045;-71
2021/09/24 04:12:37;;;;;;;25.27;22.15;;;;;;;15.40;79.71;99732.28;5048379;28;20505;-71
2021/09/24 04:15:03;;;;;;;30.38;19.95;;;;;;;15.39;79.70;99743.03;5049604;28;20044;-72
2021/09/24 04:17:28;;;;;;;32.30;22.15;;;;;;;15.34;79.89;99742.50;5030797;28;20029;-71
2021/09/24 04:19:54;;;;;;;31.40;23.10;;;;;;;15.29;80.15;99745.47;5048003;28;20053;-73
2021/09/24 04:22:19;;;;;;;34.78;24.08;;;;;;;15.29;80.19;99744.63;5049846;28;20041;-72
2021/09/24 04:24:45;;;;;;;30.13;22.05;;;;;;;15.24;80.30;99748.44;5049458;28;20112;-71
2021/09/24 04:27:10;;;;;;;30.10;20.92;;;;;;;15.23;80.41;99751.19;5049755;28;20049;-73
2021/09/24 04:29:36;;;;;;;30.73;20.90;;;;;;;15.16;80.45;99750.78;5047336;28;20033;-71
2021/09/24 04:32:01;;;;;;;30.90;23.58;;;;;;;15.13;80.27;99750.97;5048656;28;20037;-73
2021/09/24 04:34:26;;;;;;;29.67;20.67;;;;;;;15.13;80.72;99760.75;5049332;28;20041;-71
2021/09/24 04:36:52;;;;;;;26.02;20.65;;;;;;;15.11;80.65;99758.22;5049209;28;20037;-71
2021/09/24 04:39:18;;;;;;;28.98;20.00;;;;;;;15.13;80.49;99758.94;5049446;28;20045;-72
2021/09/24 04:41:43;;;;;;;28.10;21.23;;;;;;;15.14;80.25;99758.00;5047190;28;20480;-71
2021/09/24 04:44:08;;;;;;;31.33;20.85;;;;;;;15.16;80.32;99763.19;5048458;28;20029;-71
2021/09/24 04:46:34;;;;;;;27.80;19.40;;;;;;;15.18;80.22;99751.50;5049526;28;20504;-72
2021/09/24 04:48:59;;;;;;;33.22;21.80;;;;;;;15.15;80.25;99753.53;5047741;28;20075;-72
2021/09/24 04:51:25;;;;;;;26.70;19.80;;;;;;;15.14;80.50;99754.50;5049022;28;20041;-72
2021/09/24 04:53:50;;;;;;;29.70;20.20;;;;;;;15.14;80.38;99760.66;5048270;28;20029;-71
2021/09/24 04:56:16;;;;;;;21.65;16.42;;;;;;;15.15;80.34;99757.03;5049184;28;20056;-71
2021/09/24 04:58:42;;;;;;;30.30;18.40;;;;;;;15.12;80.45;99764.38;5049365;28;20040;-73
2021/09/24 05:01:08;;;;;;;27.50;17.23;;;;;;;15.11;80.39;99765.31;5048972;28;20040;-71
2021/09/24 05:03:33;;;;;;;27.35;17.05;;;;;;;15.12;80.43;99773.19;5048089;28;20048;-71
2021/09/24 05:05:58;;;;;;;23.17;14.95;;;;;;;15.12;80.60;99769.69;5048928;28;20041;-70
2021/09/24 05:08:24;;;;;;;18.98;15.73;;;;;;;15.11;80.66;99771.50;5048313;28;20094;-71
2021/09/24 05:10:49;;;;;;;21.50;16.52;;;;;;;15.11;80.43;99763.53;5046199;28;20119;-72
2021/09/24 05:13:14;;;;;;;19.52;15.45;;;;;;;15.12;80.41;99773.19;5044940;28;20106;-72
2021/09/24 05:15:40;;;;;;;21.33;16.27;;;;;;;15.09;80.39;99770.75;5048913;28;20041;-73
2021/09/24 05:18:06;;;;;;;20.50;15.13;;;;;;;15.08;80.49;99770.84;5048745;28;20092;-71
2021/09/24 05:20:33;;;;;;;21.02;15.13;;;;;;;15.06;80.46;99773.59;5043244;28;20041;-72
2021/09/24 05:22:59;;;;;;;20.35;15.45;;;;;;;15.04;80.65;99764.91;5029630;28;20039;-72
2021/09/24 05:25:25;;;;;;;20.20;15.20;;;;;;;15.01;80.95;99770.41;5049208;28;20407;-71
2021/09/24 05:27:51;;;;;;;21.23;14.43;;;;;;;15.00;81.12;99768.72;5049904;28;20090;-71
2021/09/24 05:30:17;;;;;;;25.10;15.75;;;;;;;14.99;81.04;99761.72;5050018;28;20368;-71
2021/09/24 05:32:43;;;;;;;20.17;14.18;;;;;;;14.94;81.30;99766.47;5052045;28;20044;-71
2021/09/24 05:35:09;;;;;;;18.45;13.48;;;;;;;14.96;80.90;99773.41;5031838;28;20037;-71
2021/09/24 05:37:35;;;;;;;22.08;13.18;;;;;;;14.95;81.01;99768.19;5048061;28;20099;-71
2021/09/24 05:40:00;;;;;;;15.05;12.05;;;;;;;14.95;80.42;99774.34;5048765;28;20504;-71
2021/09/24 05:42:26;;;;;;;18.30;11.73;;;;;;;14.97;80.38;99768.94;5047086;28;20041;-72
2021/09/24 05:44:51;;;;;;;17.20;12.13;;;;;;;14.96;80.35;99768.09;5046696;28;20036;-71
2021/09/24 05:47:17;;;;;;;18.70;11.98;;;;;;;14.97;80.50;99769.78;5048028;28;20041;-72
2021/09/24 05:49:42;;;;;;;14.15;10.80;;;;;;;14.99;80.28;99775.00;5048476;28;20460;-70
2021/09/24 05:52:08;;;;;;;18.05;10.75;;;;;;;14.98;80.00;99766.16;5026753;28;20037;-71
2021/09/24 05:54:33;;;;;;;13.00;9.65;;;;;;;14.99;80.10;99759.06;5028401;28;20099;-72
2021/09/24 05:56:58;;;;;;;17.92;11.45;;;;;;;15.00;79.97;99758.94;5030622;28;20146;-75
2021/09/24 05:59:24;;;;;;;16.55;10.35;;;;;;;15.02;80.11;99756.19;5029619;28;20444;-71
2021/09/24 06:01:50;;;;;;;13.75;10.85;;;;;;;15.00;80.08;99758.94;5035566;28;20041;-71
2021/09/24 06:04:16;;;;;;;15.65;9.68;;;;;;;15.03;80.01;99758.72;5028263;28;20033;-72
2021/09/24 06:06:42;;;;;;;20.17;10.38;;;;;;;15.09;79.74;99757.47;5037334;28;20041;-71
2021/09/24 06:09:09;;;;;;;12.63;9.55;;;;;;;15.11;79.78;99762.66;5031496;28;20044;-72
2021/09/24 06:11:34;;;;;;;18.88;11.90;;;;;;;15.12;79.77;99764.38;5030987;28;20825;-73
2021/09/24 06:14:00;;;;;;;15.10;11.80;;;;;;;15.11;79.53;99755.56;5030280;28;20061;-72
2021/09/24 06:16:25;;;;;;;15.25;12.07;;;;;;;15.12;79.95;99757.25;5025728;28;20029;-72
2021/09/24 06:18:54;;;;;;;18.75;12.98;;;;;;;15.12;79.84;99759.91;5026545;28;20083;-72
2021/09/24 06:21:21;;;;;;;20.85;13.25;;;;;;;15.17;79.64;99760.44;5027434;28;20129;-72
2021/09/24 06:23:46;;;;;;;18.67;14.50;;;;;;;15.20;79.69;99756.72;5025927;28;20029;-72
2021/09/24 06:26:11;;;;;;;21.05;14.10;;;;;;;15.24;79.60;99756.41;5025137;28;20033;-71
2021/09/24 06:28:37;;;;;;;18.17;14.07;;;;;;;15.27;79.39;99754.50;5025667;28;20383;-71
2021/09/24 06:31:03;;;;;;;16.80;12.25;;;;;;;15.32;79.62;99757.69;5026040;28;20033;-72
2021/09/24 06:33:28;;;;;;;19.58;13.48;;;;;;;15.34;79.77;99755.78;5026775;28;20091;-73
2021/09/24 06:35:54;;;;;;;22.90;15.13;;;;;;;15.35;79.64;99758.31;5027801;28;20037;-72
2021/09/24 06:38:19;;;;;;;19.25;14.38;;;;;;;15.38;79.43;99758.13;5027420;28;20048;-71
2021/09/24 06:40:45;;;;;;;19.05;14.20;;;;;;;15.41;79.31;99767.69;5022420;28;20071;-72
2021/09/24 06:43:11;;;;;;;23.50;16.73;;;;;;;15.40;79.52;99758.00;5027761;28;20045;-72
2021/09/24 06:45:37;;;;;;;22.50;16.45;;;;;;;15.39;79.97;99759.81;5029748;28;20041;-73
2021/09/24 06:48:03;;;;;;;23.92;17.40;;;;;;;15.38;79.92;99767.88;5026022;28;20040;-72
2021/09/24 06:50:29;;;;;;;24.40;17.10;;;;;;;15.30;80.34;99759.59;5027788;28;20649;-72
2021/09/24 06:52:54;;;;;;;23.85;16.92;;;;;;;15.30;80.69;99760.44;5026871;28;20036;-72
2021/09/24 06:55:22;;;;;;;24.23;16.40;;;;;;;15.34;80.55;99761.09;5025953;28;20041;-71
2021/09/24 06:57:50;;;;;;;23.05;17.35;;;;;;;15.37;80.35;99760.88;5025085;28;20505;-72
2021/09/24 07:00:16;;;;;;;25.85;15.93;;;;;;;15.38;80.59;99752.81;5025631;28;20505;-71
2021/09/24 07:02:41;;;;;;;27.25;16.80;;;;;;;15.37;80.86;99755.56;5025901;28;20029;-72
2021/09/24 07:05:07;;;;;;;34.17;17.88;;;;;;;15.38;81.03;99750.16;5027463;28;20041;-71
2021/09/24 07:07:32;;;;;;;30.17;20.08;;;;;;;15.41;81.00;99746.44;5027485;28;20537;-70
2021/09/24 07:09:58;;;;;;;31.38;19.42;;;;;;;15.39;81.03;99751.84;5009316;28;20033;-72
2021/09/24 07:12:24;;;;;;;32.50;18.95;;;;;;;15.41;80.92;99747.28;5026538;28;20045;-72
2021/09/24 07:14:49;;;;;;;24.88;17.40;;;;;;;15.42;80.96;99754.28;5026800;28;20108;-71
2021/09/24 07:17:15;;;;;;;26.33;17.58;;;;;;;15.49;80.97;99756.53;5026154;28;20120;-72
2021/09/24 07:19:41;;;;;;;25.23;16.73;;;;;;;15.53;81.03;99748.25;5026862;28;20438;-73
2021/09/24 07:22:08;;;;;;;25.80;18.75;;;;;;;15.61;80.84;99750.34;5027486;28;20064;-72
2021/09/24 07:24:33;;;;;;;25.77;18.40;;;;;;;15.62;80.87;99755.53;5027011;28;20030;-72
2021/09/24 07:26:59;;;;;;;26.80;17.92;;;;;;;15.63;80.86;99751.94;5027208;28;20045;-72
2021/09/24 07:29:24;;;;;;;29.33;19.00;;;;;;;15.61;80.60;99748.53;5024861;28;20065;-72
2021/09/24 07:31:50;;;;;;;31.25;19.30;;;;;;;15.61;80.89;99748.53;5023583;28;20558;-71
2021/09/24 07:34:15;;;;;;;23.42;17.20;;;;;;;15.65;80.98;99750.03;5026537;28;20068;-71
2021/09/24 07:36:41;;;;;;;25.50;18.98;;;;;;;15.66;80.73;99745.56;5029918;28;20043;-71
2021/09/24 07:39:06;;;;;;;25.52;16.75;;;;;;;15.68;80.65;99744.50;5030251;28;20029;-72
2021/09/24 07:41:32;;;;;;;24.40;15.90;;;;;;;15.73;80.71;99740.69;5028498;28;20037;-72
2021/09/24 07:43:59;;;;;;;25.35;16.02;;;;;;;15.75;80.44;99744.06;5011677;28;20476;-71
2021/09/24 07:46:25;;;;;;;28.35;19.00;;;;;;;15.76;80.64;99751.09;5029555;28;20034;-70
2021/09/24 07:48:50;;;;;;;28.23;17.30;;;;;;;15.83;80.14;99752.38;5029509;28;20058;-73
2021/09/24 07:51:17;;;;;;;24.65;16.92;;;;;;;15.85;80.14;99755.72;5027916;28;20037;-73
2021/09/24 07:53:42;;;;;;;25.75;17.35;;;;;;;15.86;79.98;99752.13;5029254;28;20033;-69
2021/09/24 07:56:09;;;;;;;22.13;16.42;;;;;;;15.90;79.75;99764.25;5030386;28;20486;-69
2021/09/24 07:58:38;;;;;;;25.27;16.90;;;;;;;15.94;79.68;99773.69;5031425;28;20053;-69
2021/09/24 08:01:03;;;;;;;25.40;15.60;;;;;;;16.01;79.64;99766.13;5029883;28;20036;-69
2021/09/24 08:03:28;;;;;;;24.20;16.20;;;;;;;16.12;79.08;99762.69;5029946;28;20037;-70
2021/09/24 08:05:54;;;;;;;25.40;15.88;;;;;;;16.20;78.38;99757.69;5029722;28;20123;-70
2021/09/24 08:08:19;;;;;;;19.63;14.23;;;;;;;16.27;78.09;99761.59;5029356;28;20052;-69
2021/09/24 08:10:45;;;;;;;20.95;13.85;;;;;;;16.35;77.39;99764.53;5030111;28;20025;-69
2021/09/24 08:13:10;;;;;;;16.80;14.20;;;;;;;16.39;76.95;99760.69;5030144;28;20053;-69
2021/09/24 08:15:41;;;;;;;22.17;15.82;;;;;;;16.43;76.77;99764.81;5030560;28;20025;-69
2021/09/24 08:18:07;;;;;;;19.67;13.35;;;;;;;16.53;76.12;99767.63;5031039;28;20045;-70
2021/09/24 08:20:33;;;;;;;16.27;11.88;;;;;;;16.59;76.26;99768.97;5029647;28;20124;-70
2021/09/24 08:22:58;;;;;;;16.42;12.73;;;;;;;16.71;75.65;99770.72;5028322;28;20538;-70
2021/09/24 08:25:24;;;;;;;19.30;12.80;;;;;;;16.69;75.44;99772.69;5029147;28;20037;-70
2021/09/24 08:27:49;;;;;;;16.63;12.48;;;;;;;16.74;75.47;99778.50;5018354;28;20045;-69
2021/09/24 08:30:16;;;;;;;16.70;11.90;;;;;;;16.77;74.87;99777.44;5011569;28;20112;-70
2021/09/24 08:32:42;;;;;;;18.98;12.02;;;;;;;16.82;74.93;99775.28;5004117;28;20069;-68
2021/09/24 08:35:11;;;;;;;16.20;12.88;;;;;;;16.93;74.27;99780.63;5019458;28;20552;-69
2021/09/24 08:37:39;;;;;;;15.63;11.55;;;;;;;17.01;73.81;99782.75;5021823;28;20159;-69
2021/09/24 08:40:07;;;;;;;16.73;13.02;;;;;;;17.09;73.25;99769.69;5024101;28;20029;-69
2021/09/24 08:42:36;;;;;;;15.13;11.45;;;;;;;17.22;72.87;99781.09;5023142;28;20533;-70
2021/09/24 08:45:01;;;;;;;20.17;11.52;;;;;;;17.32;72.09;99779.41;5023862;28;20064;-69
2021/09/24 08:47:28;;;;;;;13.98;10.70;;;;;;;17.40;71.89;99778.84;5021347;28;20045;-70
2021/09/24 08:49:53;;;;;;;13.43;10.77;;;;;;;17.53;70.93;99784.06;5023851;28;20160;-68
2021/09/24 08:52:19;;;;;;;14.93;11.25;;;;;;;17.86;69.55;99783.22;5023333;28;20470;-71
2021/09/24 08:54:44;;;;;;;16.52;10.32;;;;;;;18.17;68.57;99775.44;5023598;28;20052;-72
2021/09/24 08:57:15;;;;;;;12.02;8.27;;;;;;;18.41;67.78;99770.78;5024099;28;20041;-71
2021/09/24 08:59:40;;;;;;;15.77;10.90;;;;;;;18.60;66.69;99780.75;5023437;28;20077;-72
2021/09/24 09:02:08;;;;;;;11.55;8.90;;;;;;;18.97;65.63;99772.38;5020392;28;20044;-71
2021/09/24 09:04:35;;;;;;;15.10;9.85;;;;;;;19.03;65.09;99782.56;5023810;28;20037;-70
2021/09/24 09:07:13;;;;;;;11.70;9.10;;;;;;;19.31;64.60;99788.22;5022768;28;20041;-69
2021/09/24 09:09:44;;;;;;;19.02;10.45;;;;;;;19.31;63.21;99780.19;5038820;28;20132;-72
2021/09/24 09:12:28;;;;;;;15.57;9.27;;;;;;;19.16;62.96;99776.16;5038430;28;20756;-69
2021/09/24 09:15:11;;;;;;;9.82;7.80;;;;;;;18.91;63.49;99788.94;5040314;28;20060;-71
2021/09/24 09:17:43;;;;;;;20.55;9.80;;;;;;;18.81;63.92;99788.00;5046381;28;20037;-73
2021/09/24 09:20:15;;;;;;;11.57;8.82;;;;;;;18.57;64.73;99791.69;5039938;28;20033;-71
2021/09/24 09:22:42;;;;;;;12.85;9.30;;;;;;;18.37;65.47;99785.34;5042702;28;20029;-72
2021/09/24 09:25:31;;;;;;;11.10;8.13;;;;;;;18.37;65.19;99785.34;5040859;28;20801;-71
2021/09/24 09:27:58;;;;;;;11.40;6.95;;;;;;;18.69;64.30;99789.00;5059778;28;20033;-73
2021/09/24 09:30:26;;;;;;;16.33;8.07;;;;;;;18.64;64.54;99786.72;5031957;28;20433;-72
2021/09/24 09:32:57;;;;;;;13.15;8.38;;;;;;;18.70;64.61;99788.00;5022671;28;20096;-72
2021/09/24 09:35:22;;;;;;;8.43;7.07;;;;;;;19.19;62.61;99786.59;5037341;28;20091;-70
2021/09/24 09:37:48;;;;;;;11.57;7.60;;;;;;;19.05;62.81;99791.28;5042732;28;20036;-70
2021/09/24 09:40:16;;;;;;;9.85;7.00;;;;;;;18.99;63.10;99785.63;5039759;28;20040;-70
2021/09/24 09:42:44;;;;;;;17.33;9.07;;;;;;;18.99;63.91;99782.94;5041842;28;20119;-60
2021/09/24 09:45:13;;;;;;;15.45;9.57;;;;;;;19.31;62.88;99786.38;5042664;28;20079;-55
2021/09/24 09:47:42;;;;;;;19.75;11.07;;;;;;;19.53;62.50;99784.53;5038041;28;20048;-59
2021/09/24 09:50:25;;;;;;;16.90;11.30;;;;;;;19.59;62.10;99785.81;5042377;28;20045;-55
2021/09/24 09:53:12;;;;;;;14.88;7.07;;;;;;;19.36;62.25;99779.81;5040287;28;20037;-70
2021/09/24 09:55:42;;;;;;;12.68;7.95;;;;;;;19.17;62.75;99775.19;5041803;28;20410;-72
2021/09/24 09:58:10;;;;;;;11.35;7.25;;;;;;;19.16;63.15;99789.53;5039316;28;20113;-70
2021/09/24 10:00:52;;;;;;;10.32;7.30;;;;;;;19.19;62.86;99775.91;5041329;28;20050;-70
2021/09/24 10:03:30;;;;;;;9.45;7.40;;;;;;;19.52;61.55;99781.03;5041928;28;20044;-71
2021/09/24 10:05:56;;;;;;;10.32;6.22;;;;;;;19.42;62.06;99776.59;5042094;28;20386;-71
2021/09/24 10:08:30;;;;;;;11.85;6.35;;;;;;;19.38;62.49;99778.69;5042719;28;20052;-72
2021/09/24 10:11:14;;;;;;;10.65;7.53;;;;;;;19.35;62.71;99768.28;5040886;28;20122;-71
2021/09/24 10:13:59;;;;;;;10.48;7.97;;;;;;;19.34;62.65;99779.09;5042086;28;20116;-71
2021/09/24 10:16:29;;;;;;;;;;;;;;;19.26;62.94;99785.09;5042088;28;20040;-71
2021/09/24 10:18:55;;;;;;;10.48;7.00;;;;;;;19.17;62.98;99776.03;5042107;28;19916;-71
2021/09/24 10:21:22;;;;;;;11.40;6.57;;;;;;;19.11;63.23;99779.22;5041965;28;20079;-71
2021/09/24 10:23:48;;;;;;;8.70;7.18;;;;;;;19.07;63.75;99777.78;5038331;28;20118;-72
2021/09/24 10:26:25;;;;;;;10.85;7.97;;;;;;;19.09;63.02;99774.00;5042028;28;20578;-72
2021/09/24 10:28:55;;;;;;;13.77;7.57;;;;;;;19.12;63.19;99767.53;5040633;28;20135;-69
2021/09/24 10:31:21;;;;;;;10.75;7.40;;;;;;;19.40;62.87;99762.53;5041490;28;20033;-58
2021/09/24 10:33:53;;;;;;;12.18;7.90;;;;;;;19.60;62.19;99768.81;5041727;28;20048;-62
2021/09/24 10:36:38;;;;;;;13.30;7.18;;;;;;;19.79;61.84;99762.72;5041685;28;20523;-62
2021/09/24 10:39:05;;;;;;;;;;;;;;;19.94;60.97;99762.22;5041601;28;20048;-69
2021/09/24 10:41:30;;;;;;;11.68;7.63;;;;;;;19.82;60.73;99765.97;5040562;28;20077;-68
2021/09/24 10:43:56;;;;;;;8.85;6.65;;;;;;;19.80;60.87;99759.91;5039972;28;20041;-68
2021/09/24 10:46:25;;;;;;;9.90;6.88;;;;;;;19.80;60.25;99759.06;5039208;28;20099;-69
2021/09/24 10:49:11;;;;;;;12.23;6.78;;;;;;;20.11;59.62;99760.72;5042116;28;20055;-71
2021/09/24 10:51:38;;;;;;;10.35;5.88;;;;;;;20.13;59.21;99749.84;5041188;28;20029;-71
2021/09/24 10:54:16;;;;;;;9.85;5.35;;;;;;;20.30;59.17;99746.50;5039870;28;20595;-63
2021/09/24 10:56:59;;;;;;;11.50;5.53;;;;;;;20.51;59.00;99754.44;5040258;28;20206;-73
2021/09/24 10:59:29;;;;;;;8.55;5.00;;;;;;;20.79;58.15;99738.53;5041515;28;20132;-72
2021/09/24 11:01:56;;;;;;;9.15;5.57;;;;;;;20.75;56.56;99732.63;5039742;28;20064;-70
2021/09/24 11:04:41;;;;;;;11.00;4.60;;;;;;;20.64;57.89;99743.47;5041195;28;20132;-70
2021/09/24 11:07:06;;;;;;;6.75;3.88;;;;;;;20.59;57.80;99738.53;5039957;28;20135;-70
2021/09/24 11:09:31;;;;;;;9.48;5.53;;;;;;;20.59;58.22;99729.66;5044166;28;20634;-71
2021/09/24 11:12:05;;;;;;;7.85;5.00;;;;;;;20.62;57.97;99732.03;5044489;28;20037;-70
2021/09/24 11:14:32;;;;;;;8.23;4.40;;;;;;;20.60;57.74;99731.38;5052982;28;20092;-72
2021/09/24 11:16:59;;;;;;;10.93;4.82;;;;;;;20.58;57.62;99727.97;5065908;28;20575;-73
2021/09/24 11:19:42;;;;;;;13.40;5.72;;;;;;;20.60;58.10;99728.69;5066660;28;20097;-71
2021/09/24 11:22:19;;;;;;;8.40;5.03;;;;;;;20.61;57.59;99722.31;5064346;28;20349;-72